Rosebud, Missouri
Current Conditions -  °F | °C
As of 6:55 AM on Thursday 27 Nov 2014 (Local Time) from KFYG Reporting Station
Overcast Overcast  
Wind Chill: -5°   Ceiling: 1800
Heat Index:   Visibility: 7mi
Dew Point: -4°   Wind: 10mph
Humidity: 75%   Direction: 310°NW
Pressure: 30.45"   Gusts: 16mph
Location:  38.39°N, 91.4°W
Report Text: KFYG 271255Z AUTO 31009G14KT 7SM OVC018 00/M04 A3045 RMK AO2
Loading
Personal Weather Stations






























Interactive Weather Map New forecast layout! Learn more

10-Day Weather Forecast

Advertisements
Track Severe Weather on mobile